Ana Sayfa
METAR-TAF:

METAR-TAF

Havaalanları :

Muş, Türkiye

Muş Havalimanı

Enlem: 38-45N, Boylam: 041-40E, yükseklik: 1266 m

Güncel hava durumu gözlemi

Rapor saat 12:50 UTC de 1 saat ve 53 dakika önce yapıldı.
Rüzgar güneybatıdan 5 kt
Sıcaklık 10°C
Nem 46%
Basınç 1010 hPa
Görüş mesafesi 10 km veya daha fazla
4000 ft yükseklikte parçalı bulutlu
10000 ft yükseklikte parçalı çok bulutlu

METAR: LTCK 231250Z 23005KT 9999 SCT040 BKN100 10/M01 Q1010

Saat: 17:43 (14:43 UTC)

Tahmin

Rapor saat 13:40 UTC de 1 saat ve 3 dakika önce yapıldı.
Ayın 23'si saat 15 UTC'den ayın 23'si saat 24 UTC'ye kadar geçerli Tahmin
Rüzgar değişken yönden 2 kt
Görüş mesafesi: 8000 m
3500 ft yükseklikte parçalı bulutlu
7000 ft yükseklikte parçalı çok bulutlu

TAF: LTCK 231340Z 2315/2324 VRB02KT 8000 SCT035 BKN070

4.000'den fazla havaalanı için hava durumu gözlemleri ve tahminleri (METAR ve TAF raporları).

Kullanılabilir istasyonlar harita üzerinde sarı ve kırmızı noktalarla gösterilir.

İstasyonun adını görmek için fareyi noktanın üzerinde gezdirin.

Sonrasında hava gözlem ve tahminlerini görmek için tıklayın.

Haritayı değiştirmek için: yaklaştırmak için siyah artı işaretli yeşil düğmeye ve uzaklaştırmak için de eksi işaretli düğmeye hızla tıklayın; bitişik haritalar için yeşil okları kullanın.


METAR-TAF: